Flight Information

DEPARTURE
PALM SPRINGS, CA
Elevation:
476
Runways:
13L/31R - 4952x75 - ASPH-G
13R/31L - 10000x150 - ASPH-G
ATIS:
124.65 760-327-2770
Clearance Delivery:
128.35
Ground:
121.9
Tower:
119.7
DESTINATION
,
Elevation:
TPA:
1000 (est.)


6705.4 NM74° True-14° Var60° HDG

Flight Plan:
(click to file on line)

1. Type
2. Aircraft Identification
3. Aircraft Type / Special Equipment
4. True Airspeed
kts
5. Departure Airport
(ICAO code)
6. Arriving Airport
(ICAO code)
7. Cruising Altitude
ft
8. Alternate Airport
(ICAO code)
9. Route of Flight
10. Remarks


00:00:00 Departure ATIS: Destination ATIS:

Clearance Limit:
Route:
Altitude: Expect in minutes
Frequency:
Transponder: (7500 Hijack / 7600 Lost Comms / 7700 Emergency)


KPSP 010753Z AUTO 32003KT 10SM CLR 19/04 A2984 RMK AO2 SLP101 T01890039 402780150 $
Time: 2020-04-01T07:53:00Z
1585731088
Winds: 320 @ 3 kts
Visibility: 10.0 sm
Clouds (AGL): CLR
Temperature: 18.9 C
Dew Point: 3.9 C
Pressure: 29.840551 in Hgbr


Notes:

Data extracted from FAA Digital Chart Supplement. Effective: 0901Z Thursday, Mar 26, 2020 to 0901Z Thursday, May 21, 2020
Current ATIS data is provided courtisy of PilotEdge.